Time;durP1;ratioP1;P1;durP2;ratioP2;P2;SDS_P1;SDS_P2;PMS_P1;PMS_P2;Temp;Humidity;BMP_temperature;BMP_pressure;BME280_temperature;BME280_humidity;BME280_pressure;Samples;Min_cycle;Max_cycle;Signal;HPM_P1;HPM_P2
2024/01/03 00:00:07;;;;;;;0.40;0.40;;;;;;;8.77;63.15;98662.13;4459950;32;32464;-83
2024/01/03 00:02:36;;;;;;;0.30;0.22;;;;;;;8.82;62.44;98655.69;4448329;32;32748;-83
2024/01/03 00:05:08;;;;;;;0.43;0.43;;;;;;;8.78;62.30;98655.94;4460766;32;33367;-83
2024/01/03 00:07:35;;;;;;;0.10;0.10;;;;;;;8.95;62.25;98645.34;4448956;32;34064;-83
2024/01/03 00:10:14;;;;;;;0.55;0.37;;;;;;;8.74;62.67;98650.00;4460872;32;33529;-84
2024/01/03 00:12:41;;;;;;;0.60;0.60;;;;;;;8.96;62.49;98647.88;4448490;32;33491;-83
2024/01/03 00:15:35;;;;;;;0.50;0.50;;;;;;;9.09;61.90;98642.78;4448955;32;34105;-82
2024/01/03 00:18:04;;;;;;;0.60;0.60;;;;;;;8.86;62.19;98636.16;4424280;32;34741;-82
2024/01/03 00:20:32;;;;;;;1.62;1.52;;;;;;;8.53;63.11;98635.38;4461308;32;34245;-82
2024/01/03 00:23:04;;;;;;;0.95;0.80;;;;;;;8.46;64.05;98627.81;4460202;32;32359;-82
2024/01/03 00:25:32;;;;;;;0.75;0.75;;;;;;;8.87;62.80;98619.41;4448014;32;34345;-84
2024/01/03 00:28:00;;;;;;;0.70;0.40;;;;;;;8.69;62.90;98623.09;4452598;32;33879;-84
2024/01/03 00:30:28;;;;;;;1.58;1.48;;;;;;;8.49;64.14;98631.19;4460723;32;33911;-84
2024/01/03 00:32:56;;;;;;;1.77;1.30;;;;;;;8.53;63.62;98633.59;4460173;32;33884;-84
2024/01/03 00:35:32;;;;;;;0.30;0.30;;;;;;;8.44;64.07;98652.50;4461426;32;33073;-83
2024/01/03 00:38:00;;;;;;;0.75;0.75;;;;;;;8.84;63.12;98648.56;4462821;32;33768;-84
2024/01/03 00:40:31;;;;;;;0.70;0.70;;;;;;;8.77;63.09;98655.09;4451801;32;33960;-82
2024/01/03 00:42:58;;;;;;;0.90;0.90;;;;;;;8.75;63.29;98653.50;4473271;32;33592;-82
2024/01/03 00:45:26;;;;;;;1.75;1.15;;;;;;;8.74;63.29;98668.44;4464727;32;34452;-82
2024/01/03 00:47:54;;;;;;;2.05;1.65;;;;;;;8.76;62.96;98671.81;4461245;32;34068;-82
2024/01/03 00:50:22;;;;;;;0.00;0.00;;;;;;;8.77;63.26;98670.88;4458574;32;34091;-82
2024/01/03 00:52:49;;;;;;;0.60;0.60;;;;;;;8.56;63.71;98677.31;4453901;32;32897;-81
2024/01/03 00:55:17;;;;;;;0.37;0.37;;;;;;;8.35;64.63;98677.47;4462294;32;34476;-82
2024/01/03 00:57:45;;;;;;;2.55;0.95;;;;;;;8.40;64.84;98675.50;4457878;32;32718;-81
2024/01/03 01:00:13;;;;;;;0.47;0.47;;;;;;;8.64;64.09;98659.31;4438459;32;32385;-81
2024/01/03 01:02:41;;;;;;;0.30;0.30;;;;;;;8.47;64.27;98649.72;4455291;32;34446;-81
2024/01/03 01:05:09;;;;;;;1.17;0.52;;;;;;;8.37;64.94;98644.09;4464189;32;33182;-81
2024/01/03 01:07:37;;;;;;;1.12;1.02;;;;;;;8.69;64.08;98628.34;4438319;32;33120;-81
2024/01/03 01:10:05;;;;;;;0.35;0.25;;;;;;;8.69;64.09;98631.84;4446320;32;34503;-81
2024/01/03 01:12:32;;;;;;;0.80;0.73;;;;;;;8.63;63.97;98634.78;4456088;32;32696;-81
2024/01/03 01:15:01;;;;;;;1.40;1.30;;;;;;;8.70;64.19;98640.56;4446429;32;34543;-81
2024/01/03 01:17:29;;;;;;;1.58;1.48;;;;;;;8.74;64.06;98646.53;4447604;32;34729;-81
2024/01/03 01:19:56;;;;;;;1.75;0.47;;;;;;;8.86;63.48;98657.22;4447127;32;32107;-82
2024/01/03 01:22:25;;;;;;;2.55;0.62;;;;;;;8.99;62.87;98652.13;4445345;32;32544;-81
2024/01/03 01:24:53;;;;;;;0.47;0.45;;;;;;;8.91;63.39;98643.81;4445402;32;35145;-82
2024/01/03 01:27:21;;;;;;;0.45;0.22;;;;;;;8.81;62.77;98645.25;4447885;32;34095;-82
2024/01/03 01:29:49;;;;;;;0.10;0.10;;;;;;;8.72;64.04;98654.50;4455312;32;34107;-82
2024/01/03 01:32:16;;;;;;;0.35;0.35;;;;;;;8.61;64.12;98652.44;4461574;32;33385;-81
2024/01/03 01:34:44;;;;;;;0.50;0.50;;;;;;;8.68;63.31;98647.69;4449890;32;32529;-81
2024/01/03 01:37:12;;;;;;;0.75;0.75;;;;;;;8.94;62.84;98633.97;4467302;32;33568;-81
2024/01/03 01:39:40;;;;;;;0.20;0.20;;;;;;;9.32;61.34;98628.31;4447325;32;32782;-81
2024/01/03 01:42:07;;;;;;;0.57;0.20;;;;;;;9.07;62.32;98628.00;4447001;32;33127;-82
2024/01/03 01:44:35;;;;;;;0.20;0.20;;;;;;;8.84;63.09;98616.13;4459685;32;33815;-81
2024/01/03 01:47:05;;;;;;;0.15;0.03;;;;;;;8.85;63.04;98621.31;4433437;32;33772;-82
2024/01/03 01:49:33;;;;;;;1.00;0.75;;;;;;;9.18;61.90;98613.31;4461499;32;33875;-82
2024/01/03 01:52:01;;;;;;;1.27;1.17;;;;;;;9.20;61.43;98619.31;4445506;32;34272;-82
2024/01/03 01:54:29;;;;;;;1.23;1.08;;;;;;;9.33;61.59;98605.44;4447466;32;33642;-81
2024/01/03 01:56:57;;;;;;;0.32;0.32;;;;;;;9.27;61.06;98604.03;4446891;32;33992;-82
2024/01/03 01:59:25;;;;;;;1.30;1.20;;;;;;;9.19;61.90;98614.13;4444368;32;32963;-83
2024/01/03 02:01:53;;;;;;;0.17;0.15;;;;;;;9.32;61.63;98612.50;4460377;32;33661;-82
2024/01/03 02:04:22;;;;;;;0.32;0.28;;;;;;;9.42;61.17;98618.94;4445473;32;33695;-82
2024/01/03 02:06:50;;;;;;;0.43;0.43;;;;;;;9.32;61.66;98617.78;4459843;32;33939;-82
2024/01/03 02:09:17;;;;;;;0.15;0.15;;;;;;;9.45;61.07;98618.78;4446067;32;33629;-83
2024/01/03 02:11:46;;;;;;;0.80;0.80;;;;;;;9.35;61.08;98611.47;4461985;32;32883;-83
2024/01/03 02:14:13;;;;;;;2.55;1.67;;;;;;;9.51;61.05;98611.44;4447340;32;34075;-82
2024/01/03 02:16:41;;;;;;;1.50;1.10;;;;;;;9.37;61.05;98605.19;4450285;32;33080;-83
2024/01/03 02:19:10;;;;;;;0.25;0.25;;;;;;;9.16;61.73;98611.66;4449280;32;32813;-83
2024/01/03 02:21:37;;;;;;;0.00;0.00;;;;;;;9.31;61.92;98609.97;4465258;32;33871;-82
2024/01/03 02:24:05;;;;;;;0.65;0.65;;;;;;;9.39;61.73;98613.00;4451860;32;33034;-83
2024/01/03 02:26:33;;;;;;;1.12;0.60;;;;;;;9.44;61.34;98595.97;4473179;32;34353;-83
2024/01/03 02:29:01;;;;;;;0.10;0.10;;;;;;;9.43;61.63;98583.75;4464429;32;32772;-82
2024/01/03 02:31:28;;;;;;;0.80;0.80;;;;;;;9.08;62.64;98582.31;4446573;32;32973;-84
2024/01/03 02:33:57;;;;;;;1.08;0.98;;;;;;;9.21;62.68;98578.06;4436200;32;33100;-82
2024/01/03 02:36:25;;;;;;;0.10;0.10;;;;;;;9.58;61.62;98571.44;4466736;32;33994;-82
2024/01/03 02:38:53;;;;;;;0.35;0.35;;;;;;;9.48;61.74;98557.97;4461238;32;33764;-83
2024/01/03 02:41:21;;;;;;;0.68;0.68;;;;;;;9.16;62.59;98565.16;4447195;32;32717;-84
2024/01/03 02:43:49;;;;;;;0.45;0.45;;;;;;;9.04;63.43;98565.00;4447930;32;31565;-84
2024/01/03 02:46:20;;;;;;;0.25;0.25;;;;;;;8.91;64.26;98562.19;4443883;32;32566;-83
2024/01/03 02:48:48;;;;;;;1.27;0.65;;;;;;;8.80;64.93;98552.28;4435274;32;32923;-83
2024/01/03 02:51:20;;;;;;;0.47;0.47;;;;;;;8.68;65.10;98568.75;4455013;32;33379;-84
2024/01/03 02:53:49;;;;;;;1.67;1.12;;;;;;;8.70;65.10;98561.63;4461946;32;34470;-84
2024/01/03 02:56:16;;;;;;;2.15;1.35;;;;;;;9.13;63.82;98564.47;4461807;32;33491;-83
2024/01/03 02:58:44;;;;;;;0.10;0.10;;;;;;;8.74;65.38;98563.16;4459755;32;33258;-84
2024/01/03 03:01:12;;;;;;;1.25;0.70;;;;;;;8.62;66.03;98558.56;4461196;32;33374;-81
2024/01/03 03:03:40;;;;;;;0.73;0.73;;;;;;;8.59;65.71;98542.94;4457929;32;33207;-81
2024/01/03 03:06:08;;;;;;;0.10;0.10;;;;;;;8.82;65.49;98554.81;4437320;32;33395;-81
2024/01/03 03:08:36;;;;;;;0.17;0.17;;;;;;;8.87;65.11;98550.97;4461591;32;32992;-81
2024/01/03 03:11:04;;;;;;;1.10;1.08;;;;;;;8.64;66.12;98554.06;4450468;32;32513;-82
2024/01/03 03:13:32;;;;;;;0.40;0.40;;;;;;;8.74;65.60;98536.84;4450665;32;33592;-81
2024/01/03 03:15:59;;;;;;;1.67;1.15;;;;;;;8.66;65.62;98549.56;4448007;32;35871;-81
2024/01/03 03:18:28;;;;;;;1.55;0.68;;;;;;;8.89;65.59;98551.75;4447829;32;32528;-82
2024/01/03 03:20:56;;;;;;;1.00;0.98;;;;;;;8.16;67.99;98559.25;4435641;32;32744;-83
2024/01/03 03:23:23;;;;;;;0.32;0.32;;;;;;;8.69;66.36;98562.56;4458889;32;34312;-83
2024/01/03 03:25:51;;;;;;;1.12;1.10;;;;;;;8.47;67.19;98555.00;4450526;32;33600;-83
2024/01/03 03:28:21;;;;;;;0.80;0.60;;;;;;;8.17;68.24;98545.19;4437716;32;32931;-83
2024/01/03 03:30:49;;;;;;;0.00;0.00;;;;;;;8.14;68.59;98552.37;4461717;32;31419;-83
2024/01/03 03:33:16;;;;;;;0.55;0.55;;;;;;;8.59;66.89;98542.94;4452957;32;33627;-82
2024/01/03 03:35:44;;;;;;;1.15;0.68;;;;;;;8.92;65.98;98550.72;4446671;32;33001;-82
2024/01/03 03:38:12;;;;;;;0.32;0.32;;;;;;;8.82;66.12;98555.66;4442132;32;33683;-82
2024/01/03 03:40:40;;;;;;;0.37;0.37;;;;;;;9.33;64.86;98545.72;4458967;32;33123;-82
2024/01/03 03:43:07;;;;;;;0.22;0.22;;;;;;;9.23;65.35;98541.91;4435109;32;33538;-82
2024/01/03 03:45:35;;;;;;;0.22;0.22;;;;;;;9.42;64.90;98544.34;4448017;32;32672;-82
2024/01/03 03:48:04;;;;;;;0.30;0.30;;;;;;;8.97;66.41;98569.75;4454578;32;33133;-82
2024/01/03 03:50:32;;;;;;;0.75;0.75;;;;;;;9.22;65.59;98548.13;4448023;32;34059;-82
2024/01/03 03:53:00;;;;;;;0.20;0.20;;;;;;;8.85;67.26;98558.13;4451594;32;33506;-82
2024/01/03 03:55:28;;;;;;;0.28;0.28;;;;;;;9.11;66.65;98558.41;4451567;32;33332;-82
2024/01/03 03:57:56;;;;;;;0.00;0.00;;;;;;;8.74;67.43;98571.06;4464000;32;33549;-82
2024/01/03 04:00:24;;;;;;;0.40;0.40;;;;;;;8.89;66.96;98575.44;4462983;32;32718;-82
2024/01/03 04:02:52;;;;;;;0.22;0.17;;;;;;;9.20;66.24;98577.16;4447700;32;33432;-83
2024/01/03 04:05:19;;;;;;;0.00;0.00;;;;;;;9.17;66.05;98585.28;4461838;32;34803;-82
2024/01/03 04:07:47;;;;;;;0.52;0.52;;;;;;;9.18;66.15;98586.97;4439057;32;32827;-83
2024/01/03 04:10:15;;;;;;;0.08;0.05;;;;;;;9.19;65.60;98587.81;4448548;32;32846;-83
2024/01/03 04:12:42;;;;;;;1.27;1.00;;;;;;;9.57;64.70;98584.72;4459363;32;33905;-83
2024/01/03 04:15:10;;;;;;;1.08;0.88;;;;;;;9.69;64.19;98598.03;4464139;32;33654;-82
2024/01/03 04:17:38;;;;;;;0.00;0.00;;;;;;;9.18;65.48;98596.66;4451039;32;33735;-82
2024/01/03 04:20:07;;;;;;;0.52;0.52;;;;;;;9.19;65.81;98590.44;4456454;32;32490;-82
2024/01/03 04:22:34;;;;;;;0.10;0.10;;;;;;;9.15;65.93;98594.19;4458668;32;34087;-83
2024/01/03 04:25:02;;;;;;;0.13;0.13;;;;;;;9.24;65.72;98599.78;4473399;32;34584;-83
2024/01/03 04:27:30;;;;;;;0.00;0.00;;;;;;;9.18;65.41;98599.28;4449691;32;33731;-83
2024/01/03 04:29:57;;;;;;;0.00;0.00;;;;;;;9.20;65.91;98585.06;4453001;32;33324;-83
2024/01/03 04:32:25;;;;;;;0.47;0.47;;;;;;;9.33;65.43;98593.13;4462635;32;34273;-83
2024/01/03 04:34:53;;;;;;;0.32;0.32;;;;;;;9.20;65.98;98584.22;4423184;32;33619;-82
2024/01/03 04:37:21;;;;;;;1.02;0.95;;;;;;;9.28;65.82;98592.53;4462600;32;34364;-83
2024/01/03 04:39:49;;;;;;;0.40;0.40;;;;;;;9.37;65.50;98588.53;4462059;32;33420;-83
2024/01/03 04:42:17;;;;;;;0.50;0.50;;;;;;;9.31;65.77;98581.84;4447485;32;34732;-83
2024/01/03 04:44:44;;;;;;;0.10;0.10;;;;;;;9.65;64.68;98574.59;4436267;32;33041;-82
2024/01/03 04:47:12;;;;;;;0.95;0.70;;;;;;;9.44;65.05;98563.50;4457949;32;33782;-82
2024/01/03 04:49:40;;;;;;;0.57;0.57;;;;;;;9.40;64.86;98573.41;4452971;32;33708;-83
2024/01/03 04:52:08;;;;;;;0.73;0.73;;;;;;;9.41;64.99;98564.56;4441471;32;33905;-81
2024/01/03 04:54:35;;;;;;;1.17;1.08;;;;;;;9.52;65.26;98549.91;4449082;32;32347;-81
2024/01/03 04:57:03;;;;;;;0.68;0.68;;;;;;;9.39;65.78;98555.88;4448340;32;32453;-81
2024/01/03 04:59:31;;;;;;;0.30;0.30;;;;;;;9.32;65.86;98562.47;4438876;32;32730;-81
2024/01/03 05:01:59;;;;;;;0.45;0.30;;;;;;;9.31;66.19;98558.13;4458070;32;34655;-81
2024/01/03 05:04:26;;;;;;;0.00;0.00;;;;;;;9.37;66.23;98568.31;4437652;32;32328;-81
2024/01/03 05:06:54;;;;;;;0.22;0.15;;;;;;;9.27;66.61;98555.78;4457282;32;34167;-82
2024/01/03 05:09:21;;;;;;;0.15;0.15;;;;;;;9.17;67.21;98560.72;4453860;32;33351;-81
2024/01/03 05:11:50;;;;;;;0.00;0.00;;;;;;;9.14;67.16;98563.53;4439311;32;33720;-82
2024/01/03 05:14:18;;;;;;;0.20;0.20;;;;;;;9.12;67.23;98568.87;4444324;32;32966;-81
2024/01/03 05:16:46;;;;;;;0.10;0.10;;;;;;;9.21;67.07;98568.34;4460232;32;32786;-81
2024/01/03 05:19:13;;;;;;;0.30;0.30;;;;;;;9.27;67.23;98577.69;4437865;32;32350;-82
2024/01/03 05:21:41;;;;;;;0.00;0.00;;;;;;;9.49;65.93;98566.72;4461739;32;33721;-83
2024/01/03 05:24:09;;;;;;;0.20;0.20;;;;;;;9.74;65.03;98556.44;4448289;32;34782;-83
2024/01/03 05:26:39;;;;;;;0.00;0.00;;;;;;;9.46;65.20;98559.03;4448493;32;33067;-83
2024/01/03 05:29:07;;;;;;;2.28;1.12;;;;;;;9.25;66.42;98561.09;4451839;32;31604;-84
2024/01/03 05:31:35;;;;;;;2.33;1.30;;;;;;;9.32;65.84;98549.28;4448372;32;33958;-82
2024/01/03 05:34:02;;;;;;;0.52;0.52;;;;;;;9.32;66.02;98564.25;4448378;32;33048;-82
2024/01/03 05:36:30;;;;;;;0.00;0.00;;;;;;;9.34;66.30;98562.38;4447237;32;33082;-82
2024/01/03 05:38:58;;;;;;;16.90;1.55;;;;;;;9.72;65.19;98562.72;4452932;32;33967;-81
2024/01/03 05:41:25;;;;;;;0.70;0.70;;;;;;;9.53;65.62;98564.75;4451339;32;33566;-81
2024/01/03 05:43:53;;;;;;;0.37;0.37;;;;;;;9.61;65.62;98559.91;4451999;32;33432;-81
2024/01/03 05:46:21;;;;;;;0.10;0.10;;;;;;;9.37;65.98;98573.56;4437775;32;32690;-81
2024/01/03 05:48:48;;;;;;;0.10;0.10;;;;;;;9.26;66.77;98554.94;4459987;32;32982;-81
2024/01/03 05:51:16;;;;;;;0.00;0.00;;;;;;;9.36;66.18;98563.97;4459627;32;33625;-81
2024/01/03 05:53:47;;;;;;;0.30;0.30;;;;;;;9.66;65.53;98566.59;4449850;32;32308;-81
2024/01/03 05:56:16;;;;;;;0.25;0.25;;;;;;;9.25;66.37;98571.62;4461663;32;33017;-81
2024/01/03 05:58:43;;;;;;;1.98;1.10;;;;;;;9.33;67.37;98574.69;4446380;32;33724;-82
2024/01/03 06:01:11;;;;;;;0.00;0.00;;;;;;;8.67;70.45;98581.06;4447103;32;33915;-81
2024/01/03 06:03:39;;;;;;;0.57;0.57;;;;;;;9.24;68.36;98581.34;4443883;32;32767;-81
2024/01/03 06:06:07;;;;;;;0.65;0.65;;;;;;;9.44;67.43;98593.34;4458336;32;33492;-81
2024/01/03 06:08:35;;;;;;;1.30;0.50;;;;;;;9.55;67.29;98591.91;4462499;32;32995;-81
2024/01/03 06:11:03;;;;;;;0.10;0.10;;;;;;;9.31;67.47;98592.38;4462071;32;34020;-83
2024/01/03 06:13:31;;;;;;;0.22;0.22;;;;;;;9.40;67.95;98593.59;4449955;32;32672;-83
2024/01/03 06:15:58;;;;;;;0.20;0.20;;;;;;;9.53;67.22;98581.41;4450555;32;33363;-83
2024/01/03 06:18:26;;;;;;;0.13;0.13;;;;;;;9.65;67.80;98593.03;4462515;32;33014;-81
2024/01/03 06:20:54;;;;;;;0.22;0.22;;;;;;;9.74;66.94;98581.97;4454127;32;33862;-82
2024/01/03 06:23:21;;;;;;;0.37;0.37;;;;;;;9.53;67.23;98589.31;4434364;32;32836;-82
2024/01/03 06:25:50;;;;;;;0.00;0.00;;;;;;;9.49;66.83;98582.53;4449236;32;34029;-82
2024/01/03 06:28:17;;;;;;;0.20;0.20;;;;;;;9.47;67.27;98601.06;4461293;32;33067;-82
2024/01/03 06:30:45;;;;;;;0.85;0.60;;;;;;;9.41;67.28;98601.44;4473110;32;33178;-81
2024/01/03 06:33:13;;;;;;;2.95;1.45;;;;;;;9.41;67.49;98603.22;4453124;32;33963;-81
2024/01/03 06:35:40;;;;;;;0.80;0.80;;;;;;;9.60;66.71;98600.38;4448703;32;35331;-81
2024/01/03 06:38:08;;;;;;;0.80;0.68;;;;;;;9.56;67.17;98604.13;4438369;32;32327;-82
2024/01/03 06:40:36;;;;;;;0.10;0.10;;;;;;;9.50;66.80;98610.59;4463447;32;33056;-82
2024/01/03 06:43:04;;;;;;;0.95;0.73;;;;;;;9.35;67.39;98612.34;4442845;32;34298;-82
2024/01/03 06:45:34;;;;;;;0.10;0.10;;;;;;;9.35;67.93;98606.19;4459932;32;34231;-82
2024/01/03 06:48:02;;;;;;;0.22;0.22;;;;;;;9.42;68.07;98607.56;4449245;32;34321;-82
2024/01/03 06:50:30;;;;;;;0.00;0.00;;;;;;;9.51;67.56;98608.81;4461093;32;30709;-82
2024/01/03 06:52:57;;;;;;;0.00;0.00;;;;;;;9.62;66.99;98590.56;4435787;32;33415;-82
2024/01/03 06:55:25;;;;;;;0.10;0.10;;;;;;;9.76;66.40;98590.59;4447022;32;33309;-82
2024/01/03 06:57:53;;;;;;;1.30;1.20;;;;;;;9.81;65.75;98604.34;4461459;32;33052;-82
2024/01/03 07:00:21;;;;;;;0.00;0.00;;;;;;;9.91;65.53;98605.50;4456788;32;32500;-81
2024/01/03 07:02:48;;;;;;;0.00;0.00;;;;;;;9.88;66.40;98599.59;4447744;32;33893;-82
2024/01/03 07:05:16;;;;;;;0.10;0.10;;;;;;;9.61;67.78;98602.91;4459676;32;33844;-82
2024/01/03 07:07:44;;;;;;;0.10;0.10;;;;;;;9.37;69.69;98615.72;4448902;32;33804;-82
2024/01/03 07:10:11;;;;;;;0.15;0.15;;;;;;;9.76;68.12;98614.34;4462816;32;33167;-82
2024/01/03 07:12:39;;;;;;;0.45;0.45;;;;;;;10.08;67.23;98611.56;4448003;32;33736;-81
2024/01/03 07:15:07;;;;;;;0.20;0.20;;;;;;;10.01;67.56;98614.56;4446956;32;33118;-81
2024/01/03 07:17:35;;;;;;;0.65;0.57;;;;;;;10.04;67.47;98605.63;4463623;32;33059;-81
2024/01/03 07:20:03;;;;;;;3.10;0.75;;;;;;;9.96;67.34;98597.31;4462082;32;33357;-81
2024/01/03 07:22:31;;;;;;;0.13;0.13;;;;;;;9.91;67.18;98596.75;4457925;32;31453;-81
2024/01/03 07:24:59;;;;;;;0.00;0.00;;;;;;;10.23;66.81;98594.78;4461626;32;32996;-81
2024/01/03 07:27:26;;;;;;;1.35;1.25;;;;;;;10.13;66.45;98596.31;4441148;32;33004;-81
2024/01/03 07:29:54;;;;;;;0.03;0.03;;;;;;;10.24;66.51;98591.25;4447031;32;33115;-81
2024/01/03 07:32:22;;;;;;;0.00;0.00;;;;;;;10.39;66.72;98589.44;4463260;32;33713;-82
2024/01/03 07:34:50;;;;;;;2.47;1.00;;;;;;;9.78;68.30;98599.28;4435491;32;33264;-81
2024/01/03 07:37:18;;;;;;;0.25;0.25;;;;;;;10.12;67.50;98597.25;4448447;32;32795;-81
2024/01/03 07:39:46;;;;;;;0.03;0.03;;;;;;;10.36;67.15;98602.84;4435075;32;35687;-81
2024/01/03 07:42:13;;;;;;;0.00;0.00;;;;;;;10.44;66.89;98609.34;4445140;32;32771;-81
2024/01/03 07:44:41;;;;;;;0.00;0.00;;;;;;;10.23;67.64;98610.62;4453065;32;34396;-81
2024/01/03 07:47:10;;;;;;;0.00;0.00;;;;;;;10.00;68.31;98604.94;4449156;32;31360;-81
2024/01/03 07:49:38;;;;;;;0.00;0.00;;;;;;;9.86;69.01;98607.56;4438724;32;33241;-81
2024/01/03 07:52:06;;;;;;;0.00;0.00;;;;;;;10.22;67.64;98601.88;4464642;32;34103;-81
2024/01/03 07:54:34;;;;;;;0.00;0.00;;;;;;;10.35;67.47;98609.91;4460810;32;34971;-81
2024/01/03 07:57:04;;;;;;;0.00;0.00;;;;;;;10.58;67.13;98604.97;4434398;32;33539;-82
2024/01/03 07:59:32;;;;;;;0.00;0.00;;;;;;;10.97;65.76;98591.06;4450864;32;34236;-82
2024/01/03 08:02:00;;;;;;;0.00;0.00;;;;;;;10.92;65.93;98604.56;4461395;32;33710;-82
2024/01/03 08:04:28;;;;;;;0.00;0.00;;;;;;;10.97;65.17;98604.25;4455227;32;30844;-82
2024/01/03 08:06:56;;;;;;;0.00;0.00;;;;;;;10.84;66.30;98604.19;4458970;32;32107;-83
2024/01/03 08:09:24;;;;;;;4.78;0.43;;;;;;;10.99;65.92;98605.84;4449084;32;36430;-82
2024/01/03 08:11:52;;;;;;;0.43;0.43;;;;;;;11.09;65.34;98615.81;4448953;32;33919;-82
2024/01/03 08:14:21;;;;;;;0.45;0.10;;;;;;;10.74;66.84;98617.12;4452322;32;34307;-83
2024/01/03 08:16:48;;;;;;;0.00;0.00;;;;;;;10.89;66.59;98625.88;4447060;32;32300;-82
2024/01/03 08:19:16;;;;;;;0.10;0.10;;;;;;;11.19;65.77;98622.19;4448758;32;31584;-82
2024/01/03 08:21:45;;;;;;;0.10;0.10;;;;;;;11.33;64.86;98623.94;4464383;32;33887;-82
2024/01/03 08:24:16;;;;;;;0.25;0.20;;;;;;;11.12;65.13;98632.31;4460142;32;34125;-83
2024/01/03 08:26:46;;;;;;;0.62;0.55;;;;;;;11.19;64.98;98632.75;4449343;32;33528;-82
2024/01/03 08:29:14;;;;;;;0.00;0.00;;;;;;;11.19;65.19;98632.75;4435939;32;34174;-82
2024/01/03 08:31:42;;;;;;;0.15;0.15;;;;;;;11.34;64.76;98637.03;4460314;32;33896;-82
2024/01/03 08:34:10;;;;;;;0.55;0.55;;;;;;;11.26;64.26;98636.72;4448699;32;33184;-82
2024/01/03 08:36:43;;;;;;;0.30;0.30;;;;;;;11.30;64.71;98643.50;4447960;32;33569;-83
2024/01/03 08:39:11;;;;;;;0.47;0.30;;;;;;;11.42;64.46;98637.41;4449882;32;33165;-83
2024/01/03 08:41:40;;;;;;;0.25;0.25;;;;;;;11.45;64.11;98629.28;4445933;32;33183;-83
2024/01/03 08:44:07;;;;;;;0.10;0.10;;;;;;;11.46;64.11;98646.00;4458155;32;33614;-83
2024/01/03 08:46:42;;;;;;;0.20;0.20;;;;;;;11.46;64.17;98646.00;4460006;32;33229;-82
2024/01/03 08:49:10;;;;;;;0.10;0.10;;;;;;;11.79;62.60;98649.03;4460207;32;31413;-83
2024/01/03 08:51:39;;;;;;;0.52;0.52;;;;;;;11.43;63.54;98646.19;4450074;32;33233;-83
2024/01/03 08:54:07;;;;;;;0.00;0.00;;;;;;;11.32;63.73;98646.88;4461053;32;33487;-83
2024/01/03 08:56:38;;;;;;;0.52;0.52;;;;;;;11.47;63.78;98642.38;4448483;32;33033;-83
2024/01/03 08:59:07;;;;;;;0.10;0.10;;;;;;;11.29;64.25;98650.56;4449124;32;33421;-82
2024/01/03 09:01:34;;;;;;;0.10;0.10;;;;;;;10.87;65.12;98640.09;4445725;32;33608;-82
2024/01/03 09:04:05;;;;;;;0.00;0.00;;;;;;;11.10;64.98;98628.06;4448428;32;33337;-83
2024/01/03 09:06:35;;;;;;;4.18;1.10;;;;;;;10.87;65.75;98638.34;4464310;32;32460;-82
2024/01/03 09:09:03;;;;;;;0.20;0.20;;;;;;;11.20;64.41;98656.47;4437164;32;33801;-83
2024/01/03 09:11:36;;;;;;;0.00;0.00;;;;;;;11.64;63.07;98633.34;4459481;32;34251;-84
2024/01/03 09:14:04;;;;;;;0.37;0.37;;;;;;;11.45;63.57;98646.94;4465071;32;33450;-84
2024/01/03 09:16:39;;;;;;;0.10;0.10;;;;;;;12.13;61.65;98640.66;4452660;32;34222;-83
2024/01/03 09:19:09;;;;;;;0.00;0.00;;;;;;;12.10;61.69;98646.13;4449850;32;34598;-82
2024/01/03 09:21:46;;;;;;;0.00;0.00;;;;;;;12.13;61.52;98636.19;4458522;32;34176;-84
2024/01/03 09:24:20;;;;;;;0.10;0.03;;;;;;;12.19;61.13;98642.88;4448076;32;31813;-83
2024/01/03 09:26:50;;;;;;;0.00;0.00;;;;;;;12.20;61.07;98636.59;4462473;32;32617;-84
2024/01/03 09:29:38;;;;;;;0.00;0.00;;;;;;;12.31;60.48;98634.09;4461104;32;33287;-86
2024/01/03 09:32:16;;;;;;;0.40;0.25;;;;;;;12.42;59.99;98633.34;4450068;32;33678;-83
2024/01/03 09:34:51;;;;;;;0.00;0.00;;;;;;;12.29;59.76;98628.03;4448724;32;33817;-83
2024/01/03 09:37:21;;;;;;;0.40;0.40;;;;;;;12.08;60.50;98640.12;4430373;32;31924;-82
2024/01/03 09:39:49;;;;;;;1.60;1.50;;;;;;;11.95;61.58;98640.94;4444645;32;34400;-82
2024/01/03 09:42:16;;;;;;;0.17;0.17;;;;;;;12.20;60.95;98639.25;4445567;32;33312;-82
2024/01/03 09:44:45;;;;;;;0.03;0.03;;;;;;;12.26;60.89;98649.44;4449327;32;32666;-83
2024/01/03 09:47:16;;;;;;;0.00;0.00;;;;;;;12.85;59.37;98635.59;4431208;32;33482;-84
2024/01/03 09:49:45;;;;;;;0.00;0.00;;;;;;;13.06;58.39;98636.72;4461430;32;34411;-83
2024/01/03 09:52:18;;;;;;;0.10;0.10;;;;;;;13.31;58.24;98641.94;4435425;32;33335;-84
2024/01/03 09:55:04;;;;;;;0.40;0.40;;;;;;;13.57;57.61;98640.00;4453233;32;32971;-86
2024/01/03 09:57:32;;;;;;;0.00;0.00;;;;;;;13.93;56.73;98632.91;4461770;32;31479;-84
2024/01/03 10:00:06;;;;;;;0.00;0.00;;;;;;;14.14;56.24;98640.19;4459338;32;33977;-84
2024/01/03 10:02:38;;;;;;;0.35;0.35;;;;;;;14.45;55.36;98634.22;4458967;32;34209;-83
2024/01/03 10:05:06;;;;;;;0.32;0.32;;;;;;;14.34;55.78;98631.56;4445272;32;33097;-83
2024/01/03 10:07:35;;;;;;;0.45;0.20;;;;;;;14.67;54.83;98641.38;4446265;32;33371;-83
2024/01/03 10:10:05;;;;;;;0.00;0.00;;;;;;;14.00;55.28;98658.00;4459468;32;34732;-83
2024/01/03 10:12:33;;;;;;;1.55;1.00;;;;;;;14.20;55.92;98650.38;4445429;32;33682;-83
2024/01/03 10:15:17;;;;;;;0.85;0.30;;;;;;;14.06;56.35;98654.91;4461316;32;33991;-83
2024/01/03 10:17:45;;;;;;;0.00;0.00;;;;;;;14.38;56.05;98654.22;4460571;32;33191;-83
2024/01/03 10:20:29;;;;;;;0.20;0.10;;;;;;;14.64;55.04;98646.94;4446179;32;33232;-83
2024/01/03 10:23:09;;;;;;;0.30;0.30;;;;;;;14.82;53.40;98657.91;4449121;32;33924;-83
2024/01/03 10:25:38;;;;;;;0.17;0.17;;;;;;;15.09;53.48;98653.03;4441900;32;33369;-83
2024/01/03 10:28:07;;;;;;;0.88;0.88;;;;;;;15.73;51.99;98649.63;4448537;32;32319;-84
2024/01/03 10:30:35;;;;;;;0.17;0.17;;;;;;;15.44;52.56;98649.34;4449772;32;33224;-82
2024/01/03 10:33:07;;;;;;;0.30;0.30;;;;;;;15.17;52.57;98641.78;4464696;32;33482;-83
2024/01/03 10:35:44;;;;;;;1.17;0.95;;;;;;;15.46;52.65;98638.56;4433501;32;32701;-82
2024/01/03 10:38:15;;;;;;;0.10;0.10;;;;;;;15.51;51.56;98634.56;4464869;32;32265;-83
2024/01/03 10:40:44;;;;;;;2.42;0.32;;;;;;;15.88;50.86;98640.34;4464342;32;34056;-81
2024/01/03 10:43:13;;;;;;;0.93;0.62;;;;;;;15.91;50.52;98641.94;4436920;32;33326;-81
2024/01/03 10:45:40;;;;;;;0.00;0.00;;;;;;;15.73;51.26;98630.16;4459572;32;33037;-81
2024/01/03 10:48:09;;;;;;;0.40;0.40;;;;;;;16.24;49.39;98637.37;4433913;32;33499;-81
2024/01/03 10:50:38;;;;;;;0.00;0.00;;;;;;;15.75;50.26;98625.53;4418026;32;34115;-80
2024/01/03 10:53:08;;;;;;;0.00;0.00;;;;;;;15.72;50.97;98629.31;4424574;32;33970;-80
2024/01/03 10:55:38;;;;;;;0.05;0.05;;;;;;;15.85;50.33;98621.13;4435255;32;33749;-80
2024/01/03 10:58:14;;;;;;;0.13;0.13;;;;;;;15.84;50.00;98624.78;4436500;32;35148;-81
2024/01/03 11:01:02;;;;;;;0.37;0.30;;;;;;;16.15;49.20;98616.88;4426273;32;33612;-81
2024/01/03 11:03:43;;;;;;;0.20;0.20;;;;;;;15.73;49.68;98622.19;4433334;32;34688;-80
2024/01/03 11:06:19;;;;;;;0.20;0.20;;;;;;;15.87;50.24;98614.72;4421931;32;33114;-81
2024/01/03 11:08:53;;;;;;;0.00;0.00;;;;;;;15.96;51.51;98613.09;4432519;32;32607;-81
2024/01/03 11:11:34;;;;;;;0.00;0.00;;;;;;;15.99;51.27;98609.31;4411049;32;32831;-81
2024/01/03 11:14:21;;;;;;;0.03;0.03;;;;;;;16.32;49.70;98595.78;4437838;32;33168;-81
2024/01/03 11:16:49;;;;;;;0.30;0.20;;;;;;;16.29;49.39;98597.87;4422493;32;33666;-81
2024/01/03 11:19:27;;;;;;;2.12;0.32;;;;;;;16.31;49.04;98595.91;4407074;32;32828;-81
2024/01/03 11:21:59;;;;;;;0.00;0.00;;;;;;;15.62;49.71;98612.41;4434799;32;34269;-81
2024/01/03 11:24:27;;;;;;;0.00;0.00;;;;;;;15.83;49.24;98607.13;4433376;32;32048;-81
2024/01/03 11:26:55;;;;;;;0.75;0.28;;;;;;;15.74;50.45;98602.56;4424350;32;32618;-82
2024/01/03 11:29:35;;;;;;;0.52;0.32;;;;;;;16.00;49.89;98598.56;4421928;32;31488;-81
2024/01/03 11:32:06;;;;;;;0.30;0.30;;;;;;;15.82;50.33;98584.16;4437363;32;32681;-81
2024/01/03 11:34:43;;;;;;;0.25;0.25;;;;;;;15.67;50.31;98582.78;4424047;32;34634;-81
2024/01/03 11:37:11;;;;;;;0.00;0.00;;;;;;;15.06;51.92;98591.31;4427347;32;34152;-81
2024/01/03 11:39:43;;;;;;;0.00;0.00;;;;;;;15.08;52.46;98605.31;4452978;32;33309;-81
2024/01/03 11:42:21;;;;;;;0.10;0.10;;;;;;;15.18;51.94;98621.37;4426017;32;32598;-81
2024/01/03 11:45:19;;;;;;;0.10;0.10;;;;;;;15.19;52.31;98617.72;4424921;32;33960;-81
2024/01/03 11:47:49;;;;;;;0.17;0.17;;;;;;;14.55;53.98;98613.97;4442890;32;173682;-81